Latest Conditions
At L.F.Wade Int. Airport
Recorded at 11:55 pm
Few Clouds
Temp.: 
23°C/73°F
Humidity: 
88%
Wind: 
NNW 3KT
or 3mph
UV Index: 
0
Island Observations
 
Observations
Saturday, May 25, 2024

Observations are in local time and taken at least once an hour, or upon the start and end of specified events such as showers and thunderstorms.

Time Sky / Weather Wind Speed/Gusts Temp. R.H. Pressure
     knots (mph)  °C (°F)  %  mb / "Hg
 23:55 Few Clouds  NNW 3/0 (3/0) 23(73) 88 1015 / 29.97
 22:55 Few Clouds  NNW 3/0 (3/0) 23(74) 87 1015 / 29.97
 21:55 Few Clouds  N 3/0 (3/0) 23(74) 86 1015 / 29.96
 20:55 Few Clouds  N 4/0 (5/0) 23(74) 85 1014 / 29.94
 19:55 Partly Cloudy  N 4/0 (5/0) 24(75) 83 1014 / 29.93
 18:55 Mostly Cloudy  N 5/0 (6/0) 25(76) 80 1014 / 29.93
 17:55 Mostly Cloudy  N 6/0 (7/0) 25(77) 78 1014 / 29.93
 16:55 Mostly Cloudy  N 7/0 (8/0) 25(78) 76 1014 / 29.93
 15:55 Mostly Cloudy  N 7/0 (8/0) 26(79) 74 1014 / 29.93
 14:55 Mostly Cloudy  N 8/0 (9/0) 26(78) 73 1014 / 29.94
 13:55 Mostly Cloudy  NE 7/0 (8/0) 25(78) 74 1014 / 29.95
 12:55 Mostly Cloudy  NE 5/0 (6/0) 25(78) 74 1015 / 29.96
 11:55 Mostly Cloudy  NE 6/0 (7/0) 25(77) 77 1015 / 29.96
 10:55 Mostly Cloudy  NE 6/0 (7/0) 25(77) 78 1015 / 29.96
 09:55 Mostly Cloudy  VRB 3/0 (3/0) 24(75) 84 1014 / 29.95
 08:55 Mostly Cloudy  VRB 2/0 (2/0) 23(74) 88 1014 / 29.95
 07:55 Mostly Cloudy  VRB 1/0 (1/0) 24(74) 85 1014 / 29.94
 06:55 Mostly Cloudy  Calm 22(72) 98 1014 / 29.94
 05:55 Mostly Cloudy  SSW 2/0 (2/0) 22(72) 96 1014 / 29.93
 04:55 Mostly Cloudy  SW 4/0 (5/0) 22(72) 96 1014 / 29.94
 03:55 Mostly Cloudy  SSW 3/0 (3/0) 22(72) 94 1014 / 29.94
 02:55 Mostly Cloudy  SSW 3/0 (3/0) 22(72) 93 1015 / 29.96
 01:55 Mostly Cloudy  SSW 4/0 (5/0) 23(73) 92 1015 / 29.97
 00:55 Mostly Cloudy  SSW 4/0 (5/0) 23(73) 93 1015 / 29.98
 23:55 Mostly Cloudy  S 5/0 (6/0) 23(74) 90 1016 / 29.99
 22:55 Mostly Cloudy  S 5/0 (6/0) 23(74) 90 1016 / 30.00
 21:55 Mostly Cloudy  SSW 6/0 (7/0) 23(74) 90 1016 / 30.00
 20:55 Mostly Cloudy  S 6/0 (7/0) 23(74) 90 1016 / 29.99
 19:55 Mostly Cloudy Showers S 6/0 (7/0) 24(74) 88 1016 / 29.99
 18:55 Overcast  S 7/0 (8/0) 24(74) 87 1016 / 29.99
 17:55 Overcast Showers S 7/0 (8/0) 24(76) 84 1016 / 29.99
 16:55 Overcast Showers S 7/0 (8/0) 24(76) 82 1016 / 29.99
 15:55 Overcast Showers S 7/0 (8/0) 25(77) 79 1016 / 30.00
 14:55 Mostly Cloudy  SSE 8/0 (9/0) 25(78) 78 1016 / 30.01
 13:55 Mostly Cloudy  SSE 8/0 (9/0) 26(78) 77 1017 / 30.02
 12:55 Mostly Cloudy  SSE 7/0 (8/0) 25(78) 78 1017 / 30.02
 11:55 Mostly Cloudy  SSE 6/0 (7/0) 25(77) 78 1017 / 30.03
 10:55 Mostly Cloudy  SSE 7/0 (8/0) 24(76) 83 1017 / 30.04
 09:55 Mostly Cloudy  SSE 7/0 (8/0) 24(75) 87 1017 / 30.03
 09:45 Mostly Cloudy  SSE 7/0 (8/0) 24(75) 87 1017 / 30.04
 08:55 Mostly Cloudy  SSE 7/0 (8/0) 23(74) 89 1017 / 30.04
 07:55 Mostly Cloudy  SE 5/0 (6/0) 23(73) 88 1017 / 30.04
 06:55 Mostly Cloudy  E 3/0 (3/0) 22(71) 92 1017 / 30.03
 05:55 Mostly Cloudy  E 3/0 (3/0) 22(71) 91 1017 / 30.03
 04:55 Mostly Cloudy  E 3/0 (3/0) 22(71) 90 1017 / 30.03
 03:55 Mostly Cloudy  E 3/0 (3/0) 22(71) 90 1017 / 30.03
 02:55 Mostly Cloudy  ENE 3/0 (3/0) 22(71) 92 1017 / 30.04
 01:55 Mostly Cloudy  ENE 2/0 (2/0) 22(71) 91 1018 / 30.06
 00:55 Mostly Cloudy  VRB 1/0 (1/0) 22(72) 90 1018 / 30.07
 23:55 Partly Cloudy  ENE 2/0 (2/0) 22(71) 89 1018 / 30.07
 22:55 Mostly Cloudy  ENE 2/0 (2/0) 22(72) 88 1018 / 30.07
 21:55 Mostly Cloudy Showers ENE 3/0 (3/0) 22(72) 88 1018 / 30.06
 20:55 Mostly Cloudy Showers NE 3/0 (3/0) 22(72) 87 1018 / 30.06
 20:34 Mostly Cloudy Showers NE 3/0 (3/0) 23(73) 86 1018 / 30.06
 20:17 Mostly Cloudy Showers ENE 2/0 (2/0) 23(73) 85 1018 / 30.06
 19:55 Mostly Cloudy Showers NE 4/0 (5/0) 23(73) 85 1018 / 30.06
 18:55 Mostly Cloudy  VRB 2/0 (2/0) 24(75) 81 1018 / 30.05
 17:55 Mostly Cloudy  SE 4/0 (5/0) 23(74) 83 1017 / 30.04
 16:55 Mostly Cloudy  ESE 4/0 (5/0) 24(76) 78 1017 / 30.04
 15:55 Mostly Cloudy  NNE 4/0 (5/0) 25(77) 76 1018 / 30.05
 14:55 Mostly Cloudy  NE 7/0 (8/0) 25(77) 77 1018 / 30.07
 13:55 Mostly Cloudy  ENE 7/0 (8/0) 25(77) 78 1019 / 30.08
 12:55 Mostly Cloudy  ENE 8/0 (9/0) 25(76) 80 1019 / 30.08
 11:55 Mostly Cloudy  N 6/0 (7/0) 24(75) 86 1019 / 30.09
 10:55 Mostly Cloudy Showers N 6/0 (7/0) 24(75) 87 1019 / 30.09
 10:39 Mostly Cloudy Showers NNE 7/0 (8/0) 23(74) 89 1019 / 30.08
 09:55 Mostly Cloudy  N 4/0 (5/0) 24(74) 87 1019 / 30.09
 08:55 Mostly Cloudy  NNE 4/0 (5/0) 23(73) 93 1019 / 30.09
 07:55 Mostly Cloudy  NNE 3/0 (3/0) 22(72) 98 1018 / 30.07
 06:55 Mostly Cloudy  VRB 1/0 (1/0) 22(71) 100 1018 / 30.05
 05:55 Mostly Cloudy  ENE 2/0 (2/0) 22(71) 100 1017 / 30.04
 04:55 Mostly Cloudy  NE 2/0 (2/0) 22(71) 100 1017 / 30.04
 03:55 Overcast  ENE 2/0 (2/0) 22(72) 99 1017 / 30.03
 02:55 Overcast  VRB 2/0 (2/0) 22(72) 94 1018 / 30.05
 01:55 Overcast  E 2/0 (2/0) 22(72) 93 1018 / 30.07
 00:55 Overcast  ESE 5/0 (6/0) 22(72) 90 1018 / 30.07
 23:55 Overcast  ESE 4/0 (5/0) 22(72) 90 1018 / 30.07
 22:55 Overcast  ESE 4/0 (5/0) 22(72) 91 1019 / 30.08
 21:55 Mostly Cloudy  ESE 3/0 (3/0) 22(72) 93 1018 / 30.07
 20:55 Mostly Cloudy  SE 6/0 (7/0) 22(72) 91 1018 / 30.06
 19:55 Mostly Cloudy  ESE 5/0 (6/0) 23(73) 91 1018 / 30.05
 18:55 Overcast  ESE 6/0 (7/0) 23(74) 92 1018 / 30.06
 17:55 Overcast  ESE 6/0 (7/0) 23(74) 90 1018 / 30.06
 16:55 Overcast  SE 5/0 (6/0) 24(75) 85 1018 / 30.06
 15:55 Overcast  SE 4/0 (5/0) 24(74) 86 1018 / 30.07
 14:55 Overcast  SE 6/0 (7/0) 24(75) 83 1019 / 30.08
 13:55 Overcast  SSE 5/0 (6/0) 24(74) 84 1019 / 30.09
 13:28 Overcast  SE 5/0 (6/0) 24(74) 84 1019 / 30.08
 12:55 Overcast  ESE 6/0 (7/0) 24(74) 84 1019 / 30.08
 11:55 Overcast  SE 3/0 (3/0) 24(76) 75 1018 / 30.07
 10:55 Overcast  SSE 5/0 (6/0) 24(75) 82 1018 / 30.07
 09:55 Mostly Cloudy  SSE 4/0 (5/0) 24(75) 82 1018 / 30.07
 08:55 Overcast  S 4/0 (5/0) 23(73) 84 1018 / 30.06
 07:55 Mostly Cloudy  VRB 1/0 (1/0) 23(73) 86 1017 / 30.04
 06:55 Partly Cloudy  NNE 2/0 (2/0) 21(70) 100 1017 / 30.02
 05:55 Partly Cloudy  VRB 1/0 (1/0) 21(69) 100 1017 / 30.02
 04:55 Mostly Cloudy  VRB 1/0 (1/0) 21(70) 98 1017 / 30.02
 03:55 Mostly Cloudy  S 2/0 (2/0) 21(70) 95 1017 / 30.02
 02:55 Mostly Cloudy  Calm 21(70) 97 1017 / 30.03
 01:55 Mostly Cloudy  Calm 21(71) 93 1017 / 30.02
Island AWOS